Milton (Afi) Heliport

CMH2 · Ontario, Canada

Storia di METAR CMH2 · Milton (Afi) Heliport

Di seguito sono riportati i METAR degli ultimi giorni. Seleziona un anno per sfogliare i METAR più vecchi, dall'anno 2007 in poi.

23 aprile 2024

Tempo Codice Tempo meteorologico Temp. Vista Base nuvolosa Vento METAR/SPECI
12:00
V
16 °C 15 mi 9.000 ft 190° 190° 20 - 30 kt METAR CYYZ 231600Z 19020G30KT 170V230 15SM BKN090 16/01 A2979 RMK AC7 SLP091 DENSITY ALT 1100FT
11:00
V
15 °C 15 mi 25.000 ft 190° 190° 11 - 18 kt METAR CYYZ 231500Z 19011G18KT 15SM FEW080 SCT120 BKN250 15/02 A2981 RMK AC1AC3CI4 AC TR SLP098 DENSITY ALT 900FT
10:00
V
13 °C 15 mi 25.000 ft 200° 200° 10 - 16 kt METAR CYYZ 231400Z 20010G16KT 15SM SCT120 BKN250 13/01 A2985 RMK AC3CI4 SLP113
09:00
V
11 °C 15 mi 13.000 ft 210° 210° 10 - 17 kt METAR CYYZ 231300Z 21010G17KT 15SM BKN130 BKN250 11/00 A2987 RMK AC7CI1 CI TR SLP119
08:00
V
11 °C 15 mi 14.000 ft 180° 180° 6 kt METAR CYYZ 231200Z 18006KT 140V210 15SM BKN140 BKN250 11/00 A2988 RMK AS7CI1 CI TR SLP123
07:00
V
10 °C 15 mi 25.000 ft 200° 200° 11 kt METAR CYYZ 231100Z 20011KT 15SM SCT180 BKN250 10/M01 A2990 RMK AS4CI3 SLP128
06:00
V
10 °C 15 mi 25.000 ft 210° 210° 7 kt METAR CYYZ 231000Z 21007KT 15SM SCT180 BKN250 10/M02 A2990 RMK AS4CI2 SLP130
05:00
V
10 °C 15 mi 19.000 ft 200° 200° 8 kt METAR CYYZ 230900Z 20008KT 15SM BKN190 BKN250 10/M01 A2992 RMK AS5CI1 SLP136
04:00
V
8 °C 15 mi 18.000 ft 170° 170° 5 kt METAR CYYZ 230800Z 17005KT 15SM BKN180 BKN250 08/M00 A2993 RMK AS5CI2 SLP140
03:00
V
8 °C 15 mi 21.000 ft 190° 190° 5 kt METAR CYYZ 230700Z 19005KT 15SM BKN210 08/00 A2994 RMK CI6 SLP145
02:00
V
9 °C 15 mi 25.000 ft 200° 200° 8 kt METAR CYYZ 230600Z 20008KT 15SM BKN250 09/00 A2996 RMK CI5 SLP151
01:00
V
7 °C 15 mi - 150° 150° 5 kt METAR CYYZ 230500Z 15005KT 15SM SCT250 07/01 A2998 RMK CI4 SLP156
00:00
V
7 °C 15 mi - 150° 150° 5 kt METAR CYYZ 230400Z 15005KT 15SM FEW250 07/01 A2998 RMK CI2 SLP156

22 aprile 2024

Tempo Codice Tempo meteorologico Temp. Vista Base nuvolosa Vento METAR/SPECI
23:00
V
8 °C 15 mi - 160° 160° 5 kt METAR CYYZ 230300Z 16005KT 15SM FEW250 08/01 A2998 RMK CI1 SLP159
22:00
V
9 °C 15 mi - 170° 170° 5 kt METAR CYYZ 230200Z 17005KT 15SM FEW250 09/00 A2999 RMK CI2 SLP163
21:00
V
10 °C 15 mi - 160° 160° 5 kt METAR CYYZ 230100Z 16005KT 15SM SCT250 10/M01 A2999 RMK CI3 SLP163
20:00
V
12 °C 15 mi - 170° 170° 8 - 16 kt METAR CYYZ 230000Z 17008G16KT 150V220 15SM SCT250 12/M02 A2998 RMK CI3 SLP160
19:00
V
13 °C 15 mi - 240° 240° 9 - 17 kt METAR CYYZ 222300Z 24009G17KT 15SM FEW040 FEW250 13/M01 A3000 RMK CU1CI2 CU TR SLP164
18:00
V
13 °C 15 mi - 160° 160° 9 - 15 kt METAR CYYZ 222200Z 16009G15KT 15SM FEW040 FEW250 13/M01 A3001 RMK CU1CI1 CU TR CI TR SLP168
17:00
V
13 °C 15 mi - 160° 160° 12 - 18 kt METAR CYYZ 222100Z 16012G18KT 15SM FEW040 FEW250 13/M02 A3002 RMK CF1CI1 CF TR CI TR SLP173
16:00
V
12 °C 15 mi - 140° 140° 13 - 19 kt METAR CYYZ 222000Z 14013G19KT 15SM FEW040 FEW180 12/M04 A3004 RMK CF1AC1 CF TR AC TR SLP181
15:00
V
11 °C 15 mi - 140° 140° 11 - 17 kt METAR CYYZ 221900Z 14011G17KT 15SM FEW040 11/M04 A3006 RMK CU1 CU TR SLP186
14:00
V
10 °C 15 mi - 150° 150° 11 - 16 kt METAR CYYZ 221800Z 15011G16KT 15SM SKC 10/M03 A3007 RMK SLP190
13:00
V
10 °C 15 mi - 120° 120° 7 kt METAR CYYZ 221700Z 12007KT 100V220 15SM SKC 10/M03 A3009 RMK SLP196
12:00
V
10 °C 15 mi - 360° 360° 0 kt METAR CYYZ 221600Z 00000KT 15SM SKC 10/M05 A3010 RMK SLP200
11:00
V
8 °C 15 mi - 270° 270° 4 kt METAR CYYZ 221500Z 27004KT 200V300 15SM SKC 08/M07 A3010 RMK SLP201
10:00
V
7 °C 15 mi - 260° 260° 5 kt METAR CYYZ 221400Z 26005KT 180V320 15SM SKC 07/M03 A3011 RMK SLP203
09:00
V
5 °C 15 mi - Var Var 2 kt METAR CYYZ 221300Z VRB02KT 15SM SKC 05/M03 A3010 RMK SLP200
08:00
V
3 °C 15 mi - 290° 290° 8 kt METAR CYYZ 221200Z 29008KT 15SM SKC 03/M04 A3009 RMK SLP197
07:00
V
0 °C 15 mi - 270° 270° 5 kt METAR CYYZ 221100Z 27005KT 15SM SKC 00/M05 A3007 RMK SLP189
06:00
V
0 °C 15 mi - 290° 290° 6 kt METAR CYYZ 221000Z 29006KT 15SM SKC 00/M05 A3005 RMK SLP183
05:00
V
0 °C 15 mi - 290° 290° 6 kt METAR CYYZ 220900Z 29006KT 15SM SKC 00/M06 A3004 RMK SLP179
04:00
V
2 °C 15 mi - 310° 310° 11 kt METAR CYYZ 220800Z 31011KT 15SM SKC 02/M05 A3003 RMK SLP175
03:00
V
3 °C 15 mi - 290° 290° 11 kt METAR CYYZ 220700Z 29011KT 15SM SKC 03/M05 A3001 RMK SLP169
02:00
V
3 °C 15 mi - 290° 290° 8 kt METAR CYYZ 220600Z 29008KT 15SM SKC 03/M04 A3001 RMK SLP170
01:25
V
2 °C 15 mi - 280° 280° 6 kt METAR CYYZ 220525Z 28006KT 15SM SKC 02/M04 A3001 RMK SLP170
01:00
V
4 °C 15 mi - 290° 290° 9 kt METAR CYYZ 220500Z 29009KT 15SM SKC 04/M03 A3001 RMK SLP169
00:00
V
4 °C 15 mi - 260° 260° 9 kt METAR CYYZ 220400Z 26009KT 15SM SKC 04/M03 A3000 RMK SLP166

21 aprile 2024

Tempo Codice Tempo meteorologico Temp. Vista Base nuvolosa Vento METAR/SPECI
23:00
V
4 °C 15 mi - 270° 270° 8 kt METAR CYYZ 220300Z 27008KT 15SM SKC 04/M03 A2999 RMK SLP164
22:00
V
4 °C 15 mi - 260° 260° 7 kt METAR CYYZ 220200Z 26007KT 15SM SKC 04/M03 A2999 RMK SLP162
21:00
V
7 °C 15 mi - 260° 260° 8 kt METAR CYYZ 220100Z 26008KT 15SM FEW060 07/M04 A2997 RMK SC1 SC TR SLP157
20:00
V
8 °C 15 mi - 280° 280° 12 - 18 kt METAR CYYZ 220000Z 28012G18KT 15SM FEW060 08/M04 A2996 RMK SC2 SLP151
19:00
V
9 °C 15 mi - 280° 280° 17 - 24 kt METAR CYYZ 212300Z 28017G24KT 15SM SCT060 09/M05 A2995 RMK SC4 SLP150
18:00
V
9 °C 15 mi 6.200 ft 280° 280° 18 - 29 kt METAR CYYZ 212200Z 28018G29KT 15SM BKN062 09/M05 A2995 RMK SC6 SLP149
17:00
V
9 °C 15 mi 6.000 ft 270° 270° 22 - 28 kt METAR CYYZ 212100Z 27022G28KT 15SM BKN060 09/M04 A2995 RMK SC7 SLP147
16:00
V
9 °C 15 mi 5.800 ft 270° 270° 20 - 28 kt METAR CYYZ 212000Z 27020G28KT 15SM BKN058 09/M03 A2995 RMK SC7 SLP148
15:00
V
8 °C 15 mi 5.900 ft 290° 290° 17 - 25 kt METAR CYYZ 211900Z 29017G25KT 15SM BKN059 08/M04 A2996 RMK SC7 SLP152
14:00
V
9 °C 15 mi 6.000 ft 290° 290° 16 - 23 kt METAR CYYZ 211800Z 29016G23KT 250V320 15SM BKN060 09/M04 A2997 RMK SC7 SLP155
13:00
V
9 °C 15 mi 5.800 ft 280° 280° 16 - 23 kt METAR CYYZ 211700Z 28016G23KT 15SM BKN058 09/M05 A2998 RMK SC6 SLP157
12:00
V
7 °C 15 mi 5.100 ft 290° 290° 11 - 17 kt METAR CYYZ 211600Z 29011G17KT 15SM BKN051 07/M04 A3000 RMK SC7 SLP166
11:00
V
6 °C 15 mi 4.400 ft 280° 280° 13 kt METAR CYYZ 211500Z 28013KT 15SM BKN044 06/M03 A3001 RMK SC7 SLP170
10:00
V
5 °C 15 mi 4.000 ft 280° 280° 11 kt METAR CYYZ 211400Z 28011KT 15SM BKN040 BKN060 05/M03 A3001 RMK CU5SC2 SLP170
09:00
V
4 °C 15 mi 6.000 ft 270° 270° 10 kt METAR CYYZ 211300Z 27010KT 15SM FEW030 BKN060 04/M01 A3001 RMK CU1SC6 SLP171
08:00
V
3 °C 15 mi 5.800 ft 280° 280° 7 kt METAR CYYZ 211200Z 28007KT 15SM BKN058 03/M01 A3002 RMK SC7 SLP173
07:00
V
3 °C 15 mi 5.600 ft 280° 280° 8 kt METAR CYYZ 211100Z 28008KT 15SM FEW040 BKN056 03/M02 A3002 RMK SC2SC5 SLP172
06:00
V
4 °C 15 mi 6.000 ft 310° 310° 10 kt METAR CYYZ 211000Z 31010KT 15SM OVC060 04/M02 A3001 RMK SC8 SLP170
05:00
V
4 °C 15 mi 5.500 ft 300° 300° 9 kt METAR CYYZ 210900Z 30009KT 15SM OVC055 04/M02 A3001 RMK SC8 SLP170
04:00
V
4 °C 15 mi 6.000 ft 280° 280° 6 kt METAR CYYZ 210800Z 28006KT 15SM OVC060 04/M02 A3000 RMK SC8 SLP165
03:00
V
4 °C 15 mi 6.000 ft 260° 260° 8 kt METAR CYYZ 210700Z 26008KT 15SM OVC060 04/M02 A2999 RMK SC8 SLP164
02:00
V
4 °C 15 mi 5.500 ft 260° 260° 8 kt METAR CYYZ 210600Z 26008KT 15SM OVC055 04/M02 A3001 RMK SC8 SLP169
Segnala modifiche